マナウス の空港の天気 - METARとTAF

エドワルド ゴメス国際空港(マナウス) ( SBEG / MAO ) - ブラジル アマゾナス州マナウス
飛行場実況気象(Metar)
観測時間05/29 12:00 AMT (05/29 16:00 UTC)
風向・風速西南西 3m/s
視程10km以上
天気現象
全天の4割程度の雲 雲底高度 610m
少しの雲 雲底高度 760m
気温29℃
湿度79%
気圧1013hPa
METARSBEG 291600Z 25005KT 9999 SCT020 FEW025TCU 29/25 Q1013
過去の天気等 Google飛行場航空写真 Wunderground天気予報

過去48時間のMETAR

飛行場予報(TAF)
発表時間: 5/29 05:00 AMT (5/29 09:00 UTC)
予報対象時間: 29日8時 AMT ~ 30日8時 AMT
風向・風速東南東 3m/s
視程10km以上
全天の4割程度の雲 雲底高度 460m
29日12時 AMT ~ 29日14時 AMT に徐々に
風向・風速南南東 3m/s
全天の4割程度の雲 雲底高度 760m
少しの塔状積雲 雲底高度 910m
29日15時 AMT から 確率 30% で
天気現象
全天の4割程度の雲 雲底高度 760m
少しの積乱雲 雲底高度 910m
29日18時 AMT ~ 29日20時 AMT に徐々に
風向・風速東 3m/s
少しの雲 雲底高度 610m
TAF SBEG 290900Z 2912/3012 12005KT 9999 SCT015 TX30/2917Z TN22/3007Z
BECMG 2916/2918 16005KT SCT025 FEW030TCU
PROB30 2919/2921 TS SCT025 FEW030CB
BECMG 2922/2924 10005KT FEW020 RMK PEH